createdAt,value
2019-01-22T00:02:15.781Z,9.20
2019-01-22T00:04:45.732Z,9.30
2019-01-22T00:07:15.984Z,9.40
2019-01-22T00:09:46.480Z,9.40
2019-01-22T00:12:16.348Z,9.30
2019-01-22T00:14:48.360Z,9.30
2019-01-22T00:17:18.135Z,9.30
2019-01-22T00:19:48.180Z,9.50
2019-01-22T00:22:18.279Z,9.30
2019-01-22T00:24:48.429Z,8.70
2019-01-22T00:27:18.406Z,9.00
2019-01-22T00:29:48.421Z,9.00
2019-01-22T00:32:18.784Z,9.20
2019-01-22T00:34:49.276Z,9.60
2019-01-22T00:37:19.732Z,9.50
2019-01-22T00:39:51.016Z,9.30
2019-01-22T00:42:21.306Z,9.20
2019-01-22T00:44:51.419Z,9.10
2019-01-22T00:47:22.950Z,9.10
2019-01-22T00:49:52.961Z,8.80
2019-01-22T00:52:23.000Z,9.00
2019-01-22T00:54:52.976Z,9.10
2019-01-22T00:57:23.313Z,9.20
2019-01-22T00:59:53.228Z,9.50
2019-01-22T01:02:23.389Z,9.80
2019-01-22T01:04:53.448Z,9.90
2019-01-22T01:07:23.618Z,9.70
2019-01-22T01:09:53.907Z,9.60
2019-01-22T01:12:23.956Z,9.00
2019-01-22T01:14:53.935Z,9.10
2019-01-22T01:17:23.997Z,8.10
2019-01-22T01:19:53.764Z,8.40
2019-01-22T01:22:24.237Z,7.30
2019-01-22T01:24:54.825Z,7.80
2019-01-22T01:27:24.873Z,7.50
2019-01-22T01:29:55.066Z,7.20
2019-01-22T01:32:25.217Z,7.90
2019-01-22T01:34:55.822Z,8.50
2019-01-22T01:37:26.793Z,8.30
2019-01-22T01:39:56.973Z,8.20
2019-01-22T01:42:27.641Z,8.20
2019-01-22T01:44:57.520Z,8.00
2019-01-22T01:47:27.564Z,8.40
2019-01-22T01:49:58.071Z,8.30
2019-01-22T01:52:28.012Z,8.70
2019-01-22T01:54:57.780Z,8.70
2019-01-22T01:57:27.636Z,8.10
2019-01-22T01:59:57.603Z,8.70
2019-01-22T02:02:27.773Z,8.60
2019-01-22T02:04:57.741Z,8.00
2019-01-22T02:07:27.622Z,8.20
2019-01-22T02:09:57.561Z,8.30
2019-01-22T02:12:33.988Z,8.20
2019-01-22T02:15:05.595Z,8.50
2019-01-22T02:18:22.099Z,8.40
2019-01-22T02:21:24.798Z,8.40
2019-01-22T02:24:26.490Z,8.10
2019-01-22T02:27:29.741Z,8.40
2019-01-22T02:30:30.387Z,8.70
2019-01-22T02:33:24.672Z,8.60
2019-01-22T02:36:11.476Z,8.00
2019-01-22T02:39:13.524Z,8.60
2019-01-22T02:42:02.789Z,7.20
2019-01-22T02:45:29.025Z,7.10
2019-01-22T02:48:27.024Z,8.10
2019-01-22T02:51:39.325Z,7.90
2019-01-22T02:54:24.305Z,8.00
2019-01-22T02:57:13.037Z,7.90
2019-01-22T03:00:24.616Z,7.60
2019-01-22T03:03:57.212Z,7.60
2019-01-22T03:06:58.757Z,6.00
2019-01-22T03:09:43.273Z,6.30
2019-01-22T03:12:28.292Z,6.70
2019-01-22T03:15:35.087Z,7.10
2019-01-22T03:21:15.133Z,6.70
2019-01-22T03:24:16.173Z,8.10
2019-01-22T03:27:14.785Z,6.80
2019-01-22T03:30:05.948Z,7.10
2019-01-22T03:32:51.254Z,8.10
2019-01-22T03:36:05.301Z,8.30
2019-01-22T03:39:24.466Z,8.50
2019-01-22T03:42:19.983Z,8.30
2019-01-22T03:45:07.520Z,8.50
2019-01-22T03:48:33.640Z,8.50
2019-01-22T03:51:17.704Z,8.90
2019-01-22T03:54:24.576Z,9.30
2019-01-22T03:57:06.280Z,8.70
2019-01-22T03:59:36.288Z,8.40
2019-01-22T04:02:06.137Z,7.80
2019-01-22T04:04:36.117Z,7.10
2019-01-22T04:07:06.170Z,7.60
2019-01-22T04:10:05.725Z,6.70
2019-01-22T04:12:35.892Z,7.30
2019-01-22T04:15:07.752Z,5.50
2019-01-22T04:17:37.957Z,6.00
2019-01-22T04:20:10.207Z,8.00
2019-01-22T04:22:45.288Z,7.50
2019-01-22T04:25:29.918Z,6.70
2019-01-22T04:28:38.981Z,7.00
2019-01-22T04:31:42.536Z,8.20
2019-01-22T04:34:49.364Z,7.90
2019-01-22T04:37:51.109Z,8.30
2019-01-22T04:41:08.103Z,8.70
2019-01-22T04:43:46.961Z,8.80
2019-01-22T04:47:02.498Z,8.40
2019-01-22T04:50:18.136Z,7.40
2019-01-22T04:53:37.241Z,7.80
2019-01-22T04:56:48.549Z,8.50
2019-01-22T04:59:36.720Z,8.50
2019-01-22T05:02:52.354Z,8.00
2019-01-22T05:05:50.588Z,8.10
2019-01-22T05:09:05.604Z,7.90
2019-01-22T05:12:11.253Z,8.00
2019-01-22T05:15:20.543Z,8.30
2019-01-22T05:18:46.273Z,8.20
2019-01-22T05:21:53.298Z,7.90
2019-01-22T05:25:07.270Z,6.80
2019-01-22T05:28:20.881Z,7.80
2019-01-22T05:31:34.456Z,8.30
2019-01-22T05:34:43.344Z,7.80
2019-01-22T05:37:35.812Z,7.20
2019-01-22T05:40:51.231Z,6.30
2019-01-22T05:44:00.609Z,6.20
2019-01-22T05:47:08.439Z,6.80
2019-01-22T05:50:14.781Z,6.90
2019-01-22T05:53:26.984Z,7.10
2019-01-22T05:56:06.832Z,6.60
2019-01-22T05:59:21.392Z,6.70
2019-01-22T06:01:59.264Z,6.20
2019-01-22T06:05:17.060Z,6.70
2019-01-22T06:08:25.742Z,7.80
2019-01-22T06:11:36.451Z,6.50
2019-01-22T06:14:44.762Z,7.60
2019-01-22T06:17:53.725Z,6.50
2019-01-22T06:20:57.478Z,5.40
2019-01-22T06:24:22.709Z,6.50
2019-01-22T06:27:25.886Z,5.10
2019-01-22T06:30:31.736Z,4.20
2019-01-22T06:33:37.030Z,3.90
2019-01-22T06:36:29.829Z,4.70
2019-01-22T06:39:35.476Z,5.80
2019-01-22T06:42:19.317Z,5.80
2019-01-22T06:45:29.507Z,4.90
2019-01-22T06:48:50.928Z,4.80
2019-01-22T06:52:00.952Z,4.50
2019-01-22T07:00:34.185Z,4.20
2019-01-22T07:03:27.815Z,4.20
2019-01-22T07:06:32.485Z,6.00
2019-01-22T07:09:31.910Z,6.70
2019-01-22T07:12:42.816Z,6.80
2019-01-22T07:16:08.908Z,5.60
2019-01-22T07:19:16.701Z,5.60
2019-01-22T07:22:19.444Z,5.10
2019-01-22T07:25:12.030Z,5.10
2019-01-22T07:28:13.994Z,6.40
2019-01-22T07:31:19.953Z,3.90
2019-01-22T07:34:30.517Z,4.60
2019-01-22T07:37:43.000Z,4.10
2019-01-22T07:40:32.076Z,5.80
2019-01-22T07:44:01.062Z,6.60
2019-01-22T07:47:07.738Z,5.70
2019-01-22T07:50:14.339Z,4.70
2019-01-22T07:53:07.112Z,5.00
2019-01-22T07:56:13.838Z,4.00
2019-01-22T07:59:02.391Z,3.10
2019-01-22T08:01:59.148Z,4.20
2019-01-22T08:05:00.533Z,5.20
2019-01-22T08:08:28.163Z,4.80
2019-01-22T08:11:47.043Z,6.30
2019-01-22T08:14:53.585Z,6.20
2019-01-22T08:18:00.186Z,3.80
2019-01-22T08:20:56.919Z,5.70
2019-01-22T08:23:57.666Z,6.50
2019-01-22T08:27:07.180Z,5.60
2019-01-22T08:30:00.210Z,5.40
2019-01-22T08:33:10.761Z,4.80
2019-01-22T08:36:26.900Z,3.40
2019-01-22T08:39:12.030Z,5.10
2019-01-22T08:42:04.034Z,5.80
2019-01-22T08:45:33.000Z,3.70
2019-01-22T08:48:53.018Z,3.70
2019-01-22T08:51:44.101Z,3.60
2019-01-22T08:54:41.564Z,4.00
2019-01-22T08:58:04.517Z,3.70
2019-01-22T09:01:12.732Z,2.20
2019-01-22T09:04:12.220Z,2.40
2019-01-22T09:07:07.761Z,2.40
2019-01-22T09:10:27.501Z,3.00
2019-01-22T09:13:28.240Z,3.40
2019-01-22T09:16:44.129Z,4.10
2019-01-22T09:20:05.480Z,3.10
2019-01-22T09:23:03.353Z,3.80
2019-01-22T09:26:01.395Z,3.30
2019-01-22T09:29:14.860Z,2.10
2019-01-22T09:32:07.608Z,1.90
2019-01-22T09:35:20.477Z,3.30
2019-01-22T09:37:58.152Z,2.20
2019-01-22T09:40:28.400Z,2.10
2019-01-22T09:42:59.044Z,3.10
2019-01-22T09:45:29.307Z,3.00
2019-01-22T09:47:59.335Z,4.30
2019-01-22T09:50:29.392Z,4.40
2019-01-22T09:52:59.473Z,2.70
2019-01-22T09:55:30.453Z,4.00
2019-01-22T09:58:00.525Z,3.90
2019-01-22T10:00:30.697Z,5.90
2019-01-22T10:03:00.880Z,6.60
2019-01-22T10:05:30.929Z,4.30
2019-01-22T10:08:00.914Z,2.30
2019-01-22T10:10:31.065Z,3.20
2019-01-22T10:13:01.133Z,3.20
2019-01-22T10:15:31.301Z,2.20
2019-01-22T10:18:01.365Z,2.30
2019-01-22T10:20:31.536Z,2.20
2019-01-22T10:23:01.721Z,3.30
2019-01-22T10:25:31.984Z,5.10
2019-01-22T10:28:02.060Z,5.80
2019-01-22T10:30:32.077Z,5.90
2019-01-22T10:33:02.239Z,5.60
2019-01-22T10:35:32.626Z,4.60
2019-01-22T10:38:02.898Z,5.20
2019-01-22T10:40:33.597Z,3.70
2019-01-22T10:43:09.238Z,5.50
2019-01-22T10:45:35.636Z,5.80
2019-01-22T10:48:05.817Z,5.40
2019-01-22T10:50:36.309Z,5.20
2019-01-22T10:53:06.273Z,3.70
2019-01-22T10:55:36.538Z,3.30
2019-01-22T10:58:08.714Z,2.70
2019-01-22T11:00:38.213Z,3.20
2019-01-22T11:03:08.946Z,3.30
2019-01-22T11:05:40.800Z,2.90
2019-01-22T11:08:10.851Z,3.10
2019-01-22T11:10:40.936Z,2.60
2019-01-22T11:13:11.095Z,3.20
2019-01-22T11:15:41.103Z,3.20
2019-01-22T11:18:11.140Z,2.50
2019-01-22T11:20:41.310Z,3.00
2019-01-22T11:23:11.276Z,2.60
2019-01-22T11:25:43.681Z,2.90
2019-01-22T11:28:13.093Z,3.90
2019-01-22T11:30:43.120Z,3.60
2019-01-22T11:33:13.172Z,3.80
2019-01-22T11:35:43.164Z,4.80
2019-01-22T11:38:13.333Z,4.50
2019-01-22T11:40:47.997Z,3.30
2019-01-22T11:43:18.304Z,3.20
2019-01-22T11:45:48.338Z,4.70
2019-01-22T11:48:18.290Z,3.00
2019-01-22T11:50:48.477Z,3.20
2019-01-22T11:53:18.933Z,2.30
2019-01-22T11:55:50.622Z,2.40
2019-01-22T11:58:21.204Z,3.40
2019-01-22T12:00:56.740Z,3.70
2019-01-22T12:03:26.785Z,4.40
2019-01-22T12:05:56.764Z,3.70
2019-01-22T12:08:26.723Z,4.40
2019-01-22T12:10:56.900Z,4.00
2019-01-22T12:13:27.204Z,2.60
2019-01-22T12:15:57.801Z,2.40
2019-01-22T12:18:27.789Z,2.00
2019-01-22T12:20:57.639Z,3.60
2019-01-22T12:23:27.696Z,4.00
2019-01-22T12:25:58.166Z,3.00
2019-01-22T12:28:28.344Z,3.00
2019-01-22T12:30:58.501Z,4.00
2019-01-22T12:33:28.579Z,2.80
2019-01-22T12:35:58.536Z,2.80
2019-01-22T12:38:28.518Z,3.10
2019-01-22T12:40:58.570Z,2.90
2019-01-22T12:43:28.646Z,4.20
2019-01-22T12:45:58.804Z,3.70
2019-01-22T12:48:28.884Z,4.70
2019-01-22T12:50:59.155Z,3.00
2019-01-22T12:53:29.230Z,3.20
2019-01-22T12:56:04.474Z,3.40
2019-01-22T12:58:31.116Z,4.20
2019-01-22T13:01:01.040Z,4.50
2019-01-22T13:03:30.828Z,3.80
2019-01-22T13:06:02.936Z,5.10
2019-01-22T13:08:32.788Z,4.60
2019-01-22T13:11:02.961Z,2.90
2019-01-22T13:13:32.826Z,3.20
2019-01-22T13:16:02.992Z,2.90
2019-01-22T13:18:32.976Z,3.10
2019-01-22T13:21:02.947Z,2.20
2019-01-22T13:23:32.906Z,2.80
2019-01-22T13:26:03.048Z,3.00
2019-01-22T13:28:33.034Z,3.20
2019-01-22T13:31:03.208Z,3.00
2019-01-22T13:33:33.067Z,3.10
2019-01-22T13:36:03.232Z,2.90
2019-01-22T13:38:33.276Z,2.90
2019-01-22T13:41:03.272Z,3.50
2019-01-22T13:43:33.332Z,3.00
2019-01-22T13:46:03.352Z,2.90
2019-01-22T13:48:33.521Z,3.50
2019-01-22T13:51:03.590Z,3.00
2019-01-22T13:53:33.649Z,3.80
2019-01-22T13:56:03.857Z,3.50
2019-01-22T13:58:34.045Z,4.10
2019-01-22T14:01:04.597Z,3.00
2019-01-22T14:03:34.840Z,3.90
2019-01-22T14:06:05.148Z,3.40
2019-01-22T14:08:35.204Z,4.70
2019-01-22T14:11:05.178Z,6.10
2019-01-22T14:13:35.009Z,4.30
2019-01-22T14:16:05.200Z,3.90
2019-01-22T14:18:35.369Z,3.50
2019-01-22T14:21:05.530Z,3.20
2019-01-22T14:23:35.479Z,4.20
2019-01-22T14:26:05.568Z,4.70
2019-01-22T14:28:35.400Z,5.50
2019-01-22T14:31:05.289Z,4.80
2019-01-22T14:33:35.247Z,4.80
2019-01-22T14:36:05.320Z,6.70
2019-01-22T14:38:35.394Z,4.80
2019-01-22T14:41:06.252Z,5.10
2019-01-22T14:43:36.350Z,3.00
2019-01-22T14:46:06.572Z,3.30
2019-01-22T14:48:36.664Z,4.80
2019-01-22T14:51:06.770Z,4.70
2019-01-22T14:53:36.913Z,4.10
2019-01-22T14:56:06.781Z,3.70
2019-01-22T14:58:36.951Z,3.70
2019-01-22T15:01:07.030Z,2.90
2019-01-22T15:03:41.327Z,2.50
2019-01-22T15:06:08.692Z,2.70
2019-01-22T15:08:38.652Z,3.40
2019-01-22T15:11:08.628Z,3.80
2019-01-22T15:13:38.824Z,5.00
2019-01-22T15:16:08.968Z,3.30
2019-01-22T15:18:38.980Z,5.10
2019-01-22T15:21:09.148Z,4.80
2019-01-22T15:23:39.232Z,2.20
2019-01-22T15:26:09.382Z,3.00
2019-01-22T15:28:39.564Z,3.40
2019-01-22T15:31:09.508Z,3.10
2019-01-22T15:33:39.493Z,3.70
2019-01-22T15:36:09.441Z,5.00
2019-01-22T15:38:39.421Z,4.50
2019-01-22T15:41:09.468Z,4.10
2019-01-22T15:43:39.461Z,4.00
2019-01-22T15:46:09.417Z,3.10
2019-01-22T15:48:39.397Z,4.10
2019-01-22T15:51:09.452Z,3.40
2019-01-22T15:53:39.433Z,3.70
2019-01-22T15:56:09.483Z,3.80
2019-01-22T15:58:39.582Z,3.80
2019-01-22T16:01:09.515Z,5.00
2019-01-22T16:03:39.384Z,6.40
2019-01-22T16:06:09.348Z,6.70
2019-01-22T16:08:39.536Z,5.40
2019-01-22T16:11:09.588Z,6.00
2019-01-22T16:13:39.657Z,4.20
2019-01-22T16:16:09.906Z,5.30
2019-01-22T16:18:39.898Z,4.30
2019-01-22T16:21:10.232Z,5.20
2019-01-22T16:23:40.340Z,3.80
2019-01-22T16:26:10.704Z,4.00
2019-01-22T16:28:40.777Z,4.20
2019-01-22T16:31:10.831Z,3.50
2019-01-22T16:33:40.903Z,2.30
2019-01-22T16:36:10.968Z,3.80
2019-01-22T16:38:41.051Z,3.90
2019-01-22T16:41:11.000Z,4.80
2019-01-22T16:43:40.779Z,5.90
2019-01-22T16:46:10.748Z,3.80
2019-01-22T16:48:40.614Z,2.20
2019-01-22T16:51:10.544Z,3.20
2019-01-22T16:53:40.529Z,3.90
2019-01-22T16:56:10.801Z,5.30
2019-01-22T16:58:40.872Z,4.40
2019-01-22T17:01:11.035Z,4.00
2019-01-22T17:03:41.304Z,3.50
2019-01-22T17:06:11.865Z,3.40
2019-01-22T17:08:41.865Z,3.90
2019-01-22T17:11:11.890Z,3.10
2019-01-22T17:13:41.988Z,2.60
2019-01-22T17:16:12.021Z,3.70
2019-01-22T17:18:42.269Z,3.60
2019-01-22T17:21:12.148Z,4.70
2019-01-22T17:23:42.204Z,4.20
2019-01-22T17:26:12.384Z,4.40
2019-01-22T17:28:42.713Z,3.70
2019-01-22T17:31:27.969Z,2.70
2019-01-22T17:34:01.416Z,2.80
2019-01-22T17:36:31.388Z,2.60
2019-01-22T17:39:01.349Z,2.50
2019-01-22T17:41:31.220Z,4.00
2019-01-22T17:44:01.284Z,5.80
2019-01-22T17:46:31.252Z,3.60
2019-01-22T17:49:01.321Z,2.10
2019-01-22T17:51:31.384Z,4.10
2019-01-22T17:54:01.457Z,3.10
2019-01-22T17:56:31.337Z,5.10
2019-01-22T17:59:01.386Z,3.70
2019-01-22T18:01:31.627Z,3.50
2019-01-22T18:06:30.921Z,2.50
2019-01-22T18:09:01.151Z,4.10
2019-01-22T18:11:31.136Z,5.20
2019-01-22T18:14:03.185Z,4.80
2019-01-22T18:16:33.213Z,3.50
2019-01-22T18:19:03.260Z,4.20
2019-01-22T18:21:33.342Z,2.70
2019-01-22T18:24:03.337Z,3.50
2019-01-22T18:26:33.268Z,3.40
2019-01-22T18:29:03.189Z,3.90
2019-01-22T18:31:33.233Z,4.20
2019-01-22T18:34:03.519Z,6.10
2019-01-22T18:36:33.701Z,5.80
2019-01-22T18:39:04.585Z,4.70
2019-01-22T18:41:34.741Z,4.70
2019-01-22T18:44:05.120Z,4.60
2019-01-22T18:46:35.380Z,4.60
2019-01-22T18:49:05.458Z,4.30
2019-01-22T18:51:35.537Z,3.50
2019-01-22T18:54:05.604Z,4.10
2019-01-22T18:56:35.756Z,5.40
2019-01-22T18:59:05.932Z,4.30
2019-01-22T19:01:36.000Z,4.60
2019-01-22T19:04:06.611Z,5.70
2019-01-22T19:06:38.156Z,4.50
2019-01-22T19:09:09.170Z,3.60
2019-01-22T19:11:39.245Z,4.10
2019-01-22T19:14:09.652Z,4.60
2019-01-22T19:16:39.586Z,4.00
2019-01-22T19:19:09.656Z,3.70
2019-01-22T19:21:39.822Z,3.20
2019-01-22T19:24:09.887Z,5.40
2019-01-22T19:26:40.150Z,3.80
2019-01-22T19:29:10.593Z,3.60
2019-01-22T19:31:40.808Z,4.80
2019-01-22T19:34:10.872Z,3.80
2019-01-22T19:36:41.149Z,4.90
2019-01-22T19:39:11.122Z,6.00
2019-01-22T19:41:41.185Z,4.00
2019-01-22T19:44:11.261Z,3.60
2019-01-22T19:46:41.320Z,5.80
2019-01-22T19:49:11.377Z,4.70
2019-01-22T19:51:41.522Z,4.20
2019-01-22T19:54:11.628Z,3.50
2019-01-22T19:56:41.684Z,4.00
2019-01-22T19:59:11.878Z,4.50
2019-01-22T20:01:41.860Z,3.40
2019-01-22T20:04:12.115Z,2.90
2019-01-22T20:06:42.224Z,3.50
2019-01-22T20:09:12.882Z,3.50
2019-01-22T20:11:42.881Z,3.30
2019-01-22T20:14:13.149Z,4.40
2019-01-22T20:16:43.317Z,5.70
2019-01-22T20:19:13.377Z,4.20
2019-01-22T20:21:43.454Z,3.70
2019-01-22T20:24:16.880Z,4.10
2019-01-22T20:29:14.366Z,4.00
2019-01-22T20:31:44.440Z,4.70
2019-01-22T20:34:14.596Z,5.20
2019-01-22T20:36:44.784Z,5.00
2019-01-22T20:39:14.725Z,6.60
2019-01-22T20:41:44.713Z,5.70
2019-01-22T20:44:14.972Z,6.80
2019-01-22T20:46:45.069Z,5.70
2019-01-22T20:49:15.205Z,5.50
2019-01-22T20:51:45.390Z,4.10
2019-01-22T20:54:15.816Z,6.10
2019-01-22T20:56:45.762Z,4.60
2019-01-22T20:59:15.780Z,6.20
2019-01-22T21:01:45.865Z,7.60
2019-01-22T21:04:16.025Z,6.20
2019-01-22T21:06:46.312Z,5.20
2019-01-22T21:09:16.153Z,4.30
2019-01-22T21:11:46.236Z,4.80
2019-01-22T21:14:16.194Z,5.50
2019-01-22T21:16:46.165Z,3.40
2019-01-22T21:19:16.312Z,4.20
2019-01-22T21:21:46.321Z,4.30
2019-01-22T21:24:16.657Z,4.20
2019-01-22T21:26:46.848Z,4.20
2019-01-22T21:29:16.800Z,4.60
2019-01-22T21:31:46.981Z,3.80
2019-01-22T21:34:17.072Z,4.40
2019-01-22T21:36:47.220Z,3.20
2019-01-22T21:39:17.245Z,3.80
2019-01-22T21:41:47.388Z,4.50
2019-01-22T21:44:17.676Z,4.00
2019-01-22T21:46:47.953Z,4.90
2019-01-22T21:49:18.133Z,6.40
2019-01-22T21:51:48.120Z,5.30
2019-01-22T21:54:18.144Z,5.00
2019-01-22T21:56:48.108Z,3.90
2019-01-22T21:59:17.979Z,5.00
2019-01-22T22:01:48.137Z,4.80
2019-01-22T22:04:18.134Z,6.10
2019-01-22T22:06:48.640Z,6.60
2019-01-22T22:09:18.668Z,6.40
2019-01-22T22:11:48.604Z,5.80
2019-01-22T22:14:18.487Z,5.60
2019-01-22T22:16:48.433Z,4.30
2019-01-22T22:19:18.416Z,6.60
2019-01-22T22:21:48.490Z,6.60
2019-01-22T22:24:18.562Z,5.10
2019-01-22T22:26:48.614Z,4.90
2019-01-22T22:29:18.692Z,4.20
2019-01-22T22:31:49.026Z,3.80
2019-01-22T22:34:19.016Z,6.30
2019-01-22T22:36:48.972Z,6.80
2019-01-22T22:39:18.865Z,5.30
2019-01-22T22:41:49.018Z,4.60
2019-01-22T22:44:19.013Z,5.60
2019-01-22T22:46:48.923Z,4.30
2019-01-22T22:49:19.241Z,5.90
2019-01-22T22:51:50.432Z,5.50
2019-01-22T22:54:20.604Z,7.10
2019-01-22T22:56:50.342Z,5.30
2019-01-22T22:59:20.312Z,5.60
2019-01-22T23:01:50.283Z,5.20
2019-01-22T23:04:20.373Z,5.00
2019-01-22T23:06:50.925Z,5.70
2019-01-22T23:09:21.001Z,4.10
2019-01-22T23:11:50.949Z,3.20
2019-01-22T23:14:20.947Z,6.40
2019-01-22T23:16:50.885Z,6.10
2019-01-22T23:19:20.860Z,7.70
2019-01-22T23:21:51.025Z,5.20
2019-01-22T23:24:20.999Z,5.70
2019-01-22T23:26:51.023Z,5.30
2019-01-22T23:29:20.977Z,3.60
2019-01-22T23:31:50.948Z,5.30
2019-01-22T23:34:21.523Z,5.20
2019-01-22T23:36:51.588Z,6.20
2019-01-22T23:39:21.656Z,7.30
2019-01-22T23:41:51.532Z,7.90
2019-01-22T23:44:21.580Z,5.90
2019-01-22T23:46:51.349Z,4.70
2019-01-22T23:49:21.416Z,6.70
2019-01-22T23:51:52.706Z,7.90
2019-01-22T23:54:24.544Z,7.40
2019-01-22T23:56:54.696Z,6.30
2019-01-22T23:59:24.761Z,6.10
